Andalusia, Alabama
Current Conditions -  °F | °C
As of 6:56 AM on Sunday 23 Nov 2014 (Local Time) from K79J Reporting Station
Haze Haze  
Wind Chill: 67°   Ceiling: 300
Heat Index: 67°   Visibility: 4mi
Dew Point: 62°   Wind: 9mph
Humidity: 84%   Direction: 140°SE
Pressure: 29.84"   Gusts: NA
Location:  31.32°N, 86.49°W
Report Text: K79J 231256Z AUTO 14008KT 4SM HZ OVC003 19/17 A2984 RMK AO2 RAE32 SLP103 P0003 T01940167
Loading
Personal Weather Stations






























Interactive Weather Map New forecast layout! Learn more

10-Day Weather Forecast

Advertisements
Track Severe Weather on mobile